Time;durP1;ratioP1;P1;durP2;ratioP2;P2;SDS_P1;SDS_P2;PMS_P1;PMS_P2;Temp;Humidity;BMP_temperature;BMP_pressure;BME280_temperature;BME280_humidity;BME280_pressure;Samples;Min_cycle;Max_cycle;Signal;HPM_P1;HPM_P2
2021/11/03 00:01:49;;;;;;;12.07;7.53;;;7.30;99.90;;;;;;5018794;28;20213;-47
2021/11/03 00:04:15;;;;;;;13.10;8.43;;;7.30;99.90;;;;;;5022032;28;20187;-44
2021/11/03 00:06:43;;;;;;;11.57;8.30;;;7.40;99.90;;;;;;5018352;28;20524;-46
2021/11/03 00:09:09;;;;;;;12.30;8.67;;;7.50;99.90;;;;;;5011249;28;20195;-45
2021/11/03 00:11:35;;;;;;;14.03;9.53;;;7.80;99.90;;;;;;5008691;28;20634;-44
2021/11/03 00:14:01;;;;;;;11.93;9.57;;;7.80;99.90;;;;;;5018962;28;20426;-45
2021/11/03 00:16:27;;;;;;;9.90;8.60;;;7.90;99.90;;;;;;5021478;28;20428;-46
2021/11/03 00:18:52;;;;;;;13.17;9.73;;;8.10;99.90;;;;;;5010890;28;20294;-45
2021/11/03 00:21:18;;;;;;;10.97;9.00;;;8.20;99.90;;;;;;5009305;28;20190;-44
2021/11/03 00:23:44;;;;;;;14.47;9.87;;;8.00;99.90;;;;;;5007738;28;20191;-49
2021/11/03 00:26:09;;;;;;;14.67;10.60;;;8.00;99.90;;;;;;5007969;28;20691;-44
2021/11/03 00:28:36;;;;;;;13.23;10.30;;;7.90;99.90;;;;;;5009860;28;20591;-45
2021/11/03 00:31:01;;;;;;;12.27;9.40;;;7.60;99.90;;;;;;5012762;28;20238;-44
2021/11/03 00:33:29;;;;;;;13.13;9.60;;;7.80;99.90;;;;;;5007561;28;20429;-44
2021/11/03 00:35:55;;;;;;;12.60;10.00;;;7.60;99.90;;;;;;5015875;28;20194;-44
2021/11/03 00:38:22;;;;;;;14.50;10.50;;;7.60;99.90;;;;;;5011080;28;20430;-44
2021/11/03 00:40:49;;;;;;;12.30;9.67;;;7.60;99.90;;;;;;5008201;28;20426;-44
2021/11/03 00:43:15;;;;;;;13.60;10.50;;;7.70;99.90;;;;;;5015125;28;20489;-47
2021/11/03 00:45:41;;;;;;;14.03;9.47;;;7.70;99.90;;;;;;5020815;28;20429;-45
2021/11/03 00:48:07;;;;;;;13.77;10.50;;;7.60;99.90;;;;;;5008261;28;20430;-45
2021/11/03 00:50:33;;;;;;;14.83;11.83;;;7.60;99.90;;;;;;5010760;28;20183;-44
2021/11/03 00:52:58;;;;;;;14.87;10.40;;;7.60;99.90;;;;;;5009244;28;20195;-44
2021/11/03 00:55:24;;;;;;;17.20;11.60;;;7.50;99.90;;;;;;5018636;28;20421;-48
2021/11/03 00:57:50;;;;;;;14.87;10.30;;;7.60;99.90;;;;;;5025445;28;20277;-44
2021/11/03 01:00:17;;;;;;;13.90;10.50;;;7.50;99.90;;;;;;5017194;28;20259;-45
2021/11/03 01:02:43;;;;;;;14.00;10.60;;;7.30;99.90;;;;;;5019298;28;20215;-44
2021/11/03 01:05:12;;;;;;;11.63;9.57;;;7.30;99.90;;;;;;5008244;28;20773;-45
2021/11/03 01:07:37;;;;;;;12.40;9.90;;;7.50;99.90;;;;;;5019705;28;20434;-44
2021/11/03 01:10:05;;;;;;;12.73;10.67;;;7.10;99.90;;;;;;5007737;28;20448;-46
2021/11/03 01:12:33;;;;;;;11.53;10.00;;;7.30;99.90;;;;;;5007972;28;20219;-45
2021/11/03 01:14:58;;;;;;;12.83;8.70;;;6.90;99.90;;;;;;5016533;28;21055;-44
2021/11/03 01:17:24;;;;;;;12.53;9.07;;;6.60;99.90;;;;;;5015199;28;20653;-44
2021/11/03 01:19:49;;;;;;;12.70;10.03;;;6.60;99.90;;;;;;5006519;28;20263;-45
2021/11/03 01:22:15;;;;;;;14.60;10.97;;;6.60;99.90;;;;;;5022901;28;20313;-46
2021/11/03 01:24:41;;;;;;;12.33;9.43;;;6.70;99.90;;;;;;5015660;28;20202;-44
2021/11/03 01:27:07;;;;;;;11.77;9.07;;;6.80;99.90;;;;;;5008173;28;20788;-45
2021/11/03 01:29:32;;;;;;;13.33;9.67;;;7.10;99.90;;;;;;5016578;28;20222;-50
2021/11/03 01:31:58;;;;;;;16.50;10.30;;;7.00;99.90;;;;;;5015848;28;20214;-46
2021/11/03 01:34:24;;;;;;;14.17;10.37;;;7.30;99.90;;;;;;5005113;28;20195;-45
2021/11/03 01:36:49;;;;;;;12.00;9.87;;;7.40;99.90;;;;;;5014157;28;20398;-48
2021/11/03 01:39:15;;;;;;;13.20;10.10;;;7.20;99.90;;;;;;5006797;28;20191;-44
2021/11/03 01:41:41;;;;;;;12.73;9.20;;;7.40;99.90;;;;;;5006956;28;20584;-46
2021/11/03 01:44:14;;;;;;;11.80;9.70;;;7.30;99.90;;;;;;5017813;28;20441;-45
2021/11/03 01:46:49;;;;;;;12.93;9.63;;;7.40;99.90;;;;;;5015901;28;20335;-47
2021/11/03 01:49:18;;;;;;;13.87;10.60;;;7.40;99.90;;;;;;5014109;28;20418;-45
2021/11/03 01:51:49;;;;;;;16.20;10.53;;;7.40;99.90;;;;;;5010190;28;20514;-47
2021/11/03 01:54:24;;;;;;;15.90;10.83;;;7.40;99.90;;;;;;5007648;28;20464;-45
2021/11/03 01:56:50;;;;;;;16.13;11.20;;;7.20;99.90;;;;;;5026492;28;20424;-44
2021/11/03 01:59:33;;;;;;;14.70;10.53;;;7.40;99.90;;;;;;5014267;28;20468;-44
2021/11/03 02:02:00;;;;;;;13.10;10.33;;;7.30;99.90;;;;;;5011839;28;20510;-45
2021/11/03 02:04:26;;;;;;;15.00;11.00;;;7.50;99.90;;;;;;5007578;28;20434;-44
2021/11/03 02:06:54;;;;;;;18.47;10.20;;;7.40;99.90;;;;;;5015988;28;20421;-44
2021/11/03 02:09:20;;;;;;;15.10;10.00;;;7.40;99.90;;;;;;5006374;28;20418;-44
2021/11/03 02:11:47;;;;;;;15.20;10.07;;;7.50;99.90;;;;;;5006458;28;20992;-44
2021/11/03 02:14:13;;;;;;;13.70;9.87;;;7.30;99.90;;;;;;5005994;28;20449;-45
2021/11/03 02:16:42;;;;;;;14.00;10.33;;;7.20;99.90;;;;;;5016310;28;20983;-45
2021/11/03 02:19:17;;;;;;;13.70;9.90;;;7.00;99.90;;;;;;5006224;28;20622;-45
2021/11/03 02:22:08;;;;;;;13.70;9.97;;;7.10;99.90;;;;;;5013147;28;20510;-45
2021/11/03 02:24:55;;;;;;;13.23;10.10;;;7.00;99.90;;;;;;5001673;28;20441;-50
2021/11/03 02:27:23;;;;;;;16.00;10.53;;;7.10;99.90;;;;;;5006375;28;20874;-45
2021/11/03 02:29:50;;;;;;;12.23;9.80;;;7.20;99.90;;;;;;5015439;28;20432;-44
2021/11/03 02:32:23;;;;;;;14.83;10.33;;;7.00;99.90;;;;;;5018347;28;20515;-44
2021/11/03 02:34:49;;;;;;;14.10;10.20;;;7.00;99.90;;;;;;5011029;28;20434;-44
2021/11/03 02:37:26;;;;;;;12.30;9.60;;;6.80;99.90;;;;;;5008733;28;20525;-45
2021/11/03 02:40:20;;;;;;;16.13;9.30;;;7.10;99.90;;;;;;5006262;28;20468;-47
2021/11/03 02:42:50;;;;;;;11.80;9.10;;;7.10;99.90;;;;;;5007054;28;20991;-46
2021/11/03 02:45:23;;;;;;;11.87;8.03;;;7.00;99.90;;;;;;5013732;28;20425;-44
2021/11/03 02:47:48;;;;;;;12.00;9.10;;;7.20;99.90;;;;;;5013415;28;20418;-44
2021/11/03 02:50:14;;;;;;;13.93;8.43;;;7.10;99.90;;;;;;5004900;28;20425;-44
2021/11/03 02:52:41;;;;;;;10.37;8.03;;;7.00;99.90;;;;;;5017772;28;20543;-45
2021/11/03 02:55:09;;;;;;;11.40;8.80;;;7.00;99.90;;;;;;5005481;28;20509;-46
2021/11/03 02:57:35;;;;;;;11.70;8.13;;;7.30;99.90;;;;;;5005619;28;20532;-46
2021/11/03 03:00:13;;;;;;;14.30;8.77;;;7.20;99.90;;;;;;5016453;28;20468;-45
2021/11/03 03:02:39;;;;;;;11.97;8.50;;;7.20;99.90;;;;;;5010617;28;20469;-44
2021/11/03 03:05:05;;;;;;;9.60;8.03;;;7.00;99.90;;;;;;5005296;28;20715;-45
2021/11/03 03:07:31;;;;;;;10.57;8.53;;;6.80;99.90;;;;;;5008842;28;20920;-44
2021/11/03 03:09:58;;;;;;;11.23;8.80;;;6.70;99.90;;;;;;5005661;28;20430;-45
2021/11/03 03:12:29;;;;;;;11.00;8.57;;;6.40;99.90;;;;;;5004380;28;20286;-45
2021/11/03 03:14:59;;;;;;;11.67;8.40;;;6.30;99.90;;;;;;5018746;28;20432;-47
2021/11/03 03:17:24;;;;;;;9.30;7.80;;;6.20;99.90;;;;;;5019984;28;20421;-46
2021/11/03 03:19:50;;;;;;;10.47;7.97;;;6.30;99.90;;;;;;5013918;28;20484;-44
2021/11/03 03:22:17;;;;;;;11.43;8.47;;;6.00;99.90;;;;;;5008049;28;20211;-45
2021/11/03 03:24:44;;;;;;;10.50;8.30;;;6.10;99.90;;;;;;5005394;28;20179;-46
2021/11/03 03:27:10;;;;;;;11.57;8.83;;;6.20;99.90;;;;;;5005666;28;20446;-45
2021/11/03 03:29:36;;;;;;;10.60;7.27;;;6.30;99.90;;;;;;5009048;28;20466;-47
2021/11/03 03:32:03;;;;;;;9.37;7.57;;;6.20;99.90;;;;;;5022770;28;20421;-44
2021/11/03 03:34:29;;;;;;;12.03;8.73;;;6.10;99.90;;;;;;5006215;28;20199;-46
2021/11/03 03:36:56;;;;;;;11.60;8.53;;;6.10;99.90;;;;;;5007775;28;20436;-44
2021/11/03 03:39:24;;;;;;;12.13;8.70;;;6.20;99.90;;;;;;5013119;28;20222;-44
2021/11/03 03:42:04;;;;;;;10.80;8.70;;;6.40;99.90;;;;;;5004986;28;20544;-45
2021/11/03 03:44:30;;;;;;;10.73;8.33;;;6.60;99.90;;;;;;5011721;28;20433;-44
2021/11/03 03:46:55;;;;;;;12.63;9.70;;;6.50;99.90;;;;;;5023335;28;20483;-47
2021/11/03 03:49:21;;;;;;;9.37;7.50;;;6.60;99.90;;;;;;5011993;28;20453;-46
2021/11/03 03:51:48;;;;;;;10.40;8.07;;;6.20;99.90;;;;;;5010924;28;20187;-43
2021/11/03 03:54:13;;;;;;;11.97;8.67;;;6.10;99.90;;;;;;5014601;28;20468;-44
2021/11/03 03:56:39;;;;;;;11.90;9.17;;;6.10;99.90;;;;;;5028721;28;20429;-44
2021/11/03 03:59:05;;;;;;;9.73;8.37;;;5.90;99.90;;;;;;5023982;28;20215;-44
2021/11/03 04:01:31;;;;;;;12.37;9.30;;;5.90;99.90;;;;;;5020254;28;20633;-45
2021/11/03 04:03:57;;;;;;;10.67;8.50;;;6.10;99.90;;;;;;5026544;28;20217;-45
2021/11/03 04:06:23;;;;;;;11.50;8.40;;;6.10;99.90;;;;;;5013806;28;20175;-44
2021/11/03 04:08:49;;;;;;;10.07;8.00;;;6.60;99.90;;;;;;5010348;28;20421;-45
2021/11/03 04:11:15;;;;;;;9.70;8.63;;;6.50;99.90;;;;;;5006955;28;20538;-47
2021/11/03 04:13:42;;;;;;;11.80;8.60;;;6.90;99.90;;;;;;5008005;28;20863;-44
2021/11/03 04:16:09;;;;;;;10.77;8.13;;;6.80;99.90;;;;;;5027143;28;20428;-45
2021/11/03 04:18:34;;;;;;;11.37;8.73;;;6.80;99.90;;;;;;5021813;28;20496;-46
2021/11/03 04:21:00;;;;;;;10.70;7.50;;;6.90;99.90;;;;;;5008517;28;20528;-45
2021/11/03 04:23:26;;;;;;;11.90;8.47;;;7.00;99.90;;;;;;5020302;28;20523;-46
2021/11/03 04:25:52;;;;;;;12.00;8.40;;;6.90;99.90;;;;;;5006818;28;20286;-44
2021/11/03 04:28:18;;;;;;;10.60;7.80;;;6.80;99.90;;;;;;5008038;28;20505;-44
2021/11/03 04:30:44;;;;;;;10.03;7.70;;;6.90;99.90;;;;;;5012519;28;20651;-44
2021/11/03 04:33:10;;;;;;;10.43;7.63;;;6.70;99.90;;;;;;5011932;28;20508;-45
2021/11/03 04:35:36;;;;;;;9.00;6.93;;;7.00;99.90;;;;;;5008180;28;20501;-44
2021/11/03 04:38:02;;;;;;;9.87;7.20;;;6.80;99.90;;;;;;5017028;28;20770;-44
2021/11/03 04:40:29;;;;;;;8.83;6.90;;;7.00;99.90;;;;;;5008277;28;20218;-44
2021/11/03 04:42:56;;;;;;;9.47;6.73;;;6.90;99.90;;;;;;5007582;28;20469;-49
2021/11/03 04:45:22;;;;;;;9.00;6.60;;;6.90;99.90;;;;;;5013386;28;20437;-46
2021/11/03 04:47:49;;;;;;;9.23;6.83;;;7.00;99.90;;;;;;5019139;28;20417;-44
2021/11/03 04:50:27;;;;;;;8.70;6.80;;;6.90;99.90;;;;;;5008187;28;20873;-44
2021/11/03 04:52:52;;;;;;;11.00;6.33;;;7.00;99.90;;;;;;5012249;28;20420;-44
2021/11/03 04:55:18;;;;;;;9.53;6.67;;;7.10;99.90;;;;;;5016374;28;20440;-44
2021/11/03 04:57:44;;;;;;;9.97;7.40;;;7.00;99.90;;;;;;5027683;28;20218;-47
2021/11/03 05:00:17;;;;;;;8.77;6.70;;;7.00;99.90;;;;;;5020113;28;20199;-44
2021/11/03 05:02:43;;;;;;;10.10;7.30;;;7.00;99.90;;;;;;5023022;28;20229;-44
2021/11/03 05:05:08;;;;;;;6.97;5.80;;;6.80;99.90;;;;;;5009143;28;20444;-44
2021/11/03 05:07:34;;;;;;;7.97;5.87;;;6.90;99.90;;;;;;5021470;28;20190;-44
2021/11/03 05:10:00;;;;;;;7.43;5.97;;;7.00;99.90;;;;;;5040892;28;20268;-44
2021/11/03 05:12:25;;;;;;;6.93;5.40;;;7.00;99.90;;;;;;5009899;28;20199;-44
2021/11/03 05:14:51;;;;;;;8.00;6.37;;;6.80;99.90;;;;;;5015023;28;20186;-46
2021/11/03 05:17:17;;;;;;;8.87;5.70;;;7.10;99.90;;;;;;5032469;28;20327;-44
2021/11/03 05:19:42;;;;;;;8.60;6.60;;;6.90;99.90;;;;;;5016241;28;20183;-46
2021/11/03 05:22:09;;;;;;;8.93;5.80;;;7.10;99.90;;;;;;5007343;28;20460;-44
2021/11/03 05:24:35;;;;;;;9.83;6.30;;;7.00;99.90;;;;;;5015458;28;20202;-45
2021/11/03 05:27:01;;;;;;;9.40;6.40;;;7.20;99.90;;;;;;5007565;28;20422;-45
2021/11/03 05:29:28;;;;;;;6.90;4.93;;;7.30;99.90;;;;;;5011176;28;20598;-45
2021/11/03 05:31:53;;;;;;;7.40;5.90;;;7.10;99.90;;;;;;5018357;28;20422;-44
2021/11/03 05:34:19;;;;;;;9.37;6.70;;;7.30;99.90;;;;;;5021668;28;20770;-45
2021/11/03 05:36:45;;;;;;;9.97;6.77;;;7.10;99.90;;;;;;5011878;28;20678;-44
2021/11/03 05:39:16;;;;;;;8.07;5.73;;;7.40;99.90;;;;;;5011249;28;20426;-44
2021/11/03 05:41:41;;;;;;;7.77;5.87;;;7.40;99.90;;;;;;5007049;28;20184;-45
2021/11/03 05:44:10;;;;;;;8.47;5.90;;;7.40;99.90;;;;;;5007200;28;20456;-44
2021/11/03 05:46:43;;;;;;;6.90;5.43;;;7.30;99.90;;;;;;5025653;28;20194;-45
2021/11/03 05:49:10;;;;;;;6.50;5.50;;;7.40;99.90;;;;;;5021989;28;20435;-44
2021/11/03 05:51:42;;;;;;;7.33;5.63;;;7.30;99.90;;;;;;5007308;28;20968;-44
2021/11/03 05:54:08;;;;;;;8.70;6.10;;;7.20;99.90;;;;;;5006466;28;20437;-44
2021/11/03 05:56:35;;;;;;;5.83;5.17;;;7.30;99.90;;;;;;5026564;28;20428;-45
2021/11/03 05:59:03;;;;;;;6.47;5.50;;;7.20;99.90;;;;;;5026433;28;20967;-44
2021/11/03 06:01:29;;;;;;;7.63;5.50;;;7.30;99.90;;;;;;5013533;28;20473;-45
2021/11/03 06:03:55;;;;;;;7.00;5.50;;;7.30;99.90;;;;;;5025530;28;20445;-44
2021/11/03 06:06:22;;;;;;;6.60;5.50;;;7.30;99.90;;;;;;5009645;28;20647;-45
2021/11/03 06:08:49;;;;;;;7.23;5.40;;;7.20;99.90;;;;;;5021966;28;20198;-44
2021/11/03 06:11:16;;;;;;;7.53;6.20;;;7.40;99.90;;;;;;5006234;28;20433;-49
2021/11/03 06:13:43;;;;;;;6.87;5.80;;;7.40;99.90;;;;;;5004815;28;20425;-44
2021/11/03 06:16:09;;;;;;;6.40;5.23;;;7.30;99.90;;;;;;5014225;28;20432;-45
2021/11/03 06:18:35;;;;;;;8.30;5.17;;;7.10;99.90;;;;;;5021112;28;20432;-47
2021/11/03 06:21:01;;;;;;;6.63;5.50;;;7.20;99.90;;;;;;5018732;28;20432;-44
2021/11/03 06:23:27;;;;;;;8.93;5.37;;;7.10;99.90;;;;;;5010702;28;20805;-45
2021/11/03 06:25:52;;;;;;;6.67;5.23;;;6.70;99.90;;;;;;5008400;28;20513;-47
2021/11/03 06:28:19;;;;;;;9.20;6.03;;;6.90;99.90;;;;;;5005366;28;20186;-47
2021/11/03 06:30:45;;;;;;;7.20;5.30;;;6.70;99.90;;;;;;5011782;28;20209;-43
2021/11/03 06:33:11;;;;;;;6.93;4.87;;;6.70;99.90;;;;;;5022754;28;20416;-44
2021/11/03 06:35:38;;;;;;;7.17;6.20;;;6.60;99.90;;;;;;5014734;28;20940;-45
2021/11/03 06:38:06;;;;;;;7.90;5.83;;;6.80;99.90;;;;;;5006083;28;20241;-45
2021/11/03 06:40:32;;;;;;;7.37;5.70;;;6.70;99.90;;;;;;5005460;28;20967;-45
2021/11/03 06:42:58;;;;;;;9.47;5.80;;;6.90;99.90;;;;;;5005184;28;20453;-44
2021/11/03 06:45:25;;;;;;;8.40;6.70;;;7.00;99.90;;;;;;5005499;28;20433;-48
2021/11/03 06:47:52;;;;;;;6.67;5.47;;;6.90;99.90;;;;;;5009548;28;20178;-44
2021/11/03 06:50:26;;;;;;;6.93;5.40;;;7.00;99.90;;;;;;5008230;28;20422;-47
2021/11/03 06:52:53;;;;;;;7.97;6.37;;;6.70;99.90;;;;;;5005485;28;20502;-46
2021/11/03 06:55:20;;;;;;;8.43;6.90;;;6.90;99.90;;;;;;5025650;28;20864;-45
2021/11/03 06:57:45;;;;;;;11.27;8.10;;;7.00;99.90;;;;;;5025332;28;20782;-45
2021/11/03 07:00:15;;;;;;;12.37;9.67;;;6.90;99.90;;;;;;5024333;28;20563;-44
2021/11/03 07:02:41;;;;;;;9.60;7.00;;;7.20;99.90;;;;;;5012535;28;20603;-45
2021/11/03 07:05:07;;;;;;;8.37;6.70;;;7.40;99.90;;;;;;5014053;28;20425;-44
2021/11/03 07:07:33;;;;;;;8.77;6.20;;;7.30;99.90;;;;;;5016865;28;20414;-44
2021/11/03 07:09:59;;;;;;;9.13;6.73;;;7.20;99.90;;;;;;5011644;28;20472;-46
2021/11/03 07:12:24;;;;;;;9.87;6.50;;;7.20;99.90;;;;;;5004997;28;20469;-44
2021/11/03 07:14:50;;;;;;;7.90;6.17;;;7.30;99.90;;;;;;5005373;28;20194;-45
2021/11/03 07:17:15;;;;;;;10.23;7.20;;;7.20;99.90;;;;;;5018541;28;20616;-44
2021/11/03 07:19:42;;;;;;;9.83;6.63;;;7.20;99.90;;;;;;5024283;28;20357;-44
2021/11/03 07:22:09;;;;;;;11.10;7.60;;;7.10;99.90;;;;;;5012399;28;20608;-45
2021/11/03 07:24:35;;;;;;;7.90;6.50;;;7.10;99.90;;;;;;5007765;28;20676;-47
2021/11/03 07:27:02;;;;;;;9.67;6.50;;;7.20;99.90;;;;;;5009446;28;20941;-44
2021/11/03 07:29:28;;;;;;;7.83;6.63;;;7.20;99.90;;;;;;5009678;28;20422;-48
2021/11/03 07:31:54;;;;;;;9.80;7.30;;;7.10;99.90;;;;;;5021329;28;20448;-45
2021/11/03 07:34:20;;;;;;;10.97;7.80;;;7.20;99.90;;;;;;5019533;28;20789;-45
2021/11/03 07:36:45;;;;;;;10.20;7.50;;;7.10;99.90;;;;;;5009241;28;20202;-44
2021/11/03 07:39:11;;;;;;;9.80;7.37;;;7.10;99.90;;;;;;5009756;28;20422;-46
2021/11/03 07:41:39;;;;;;;9.73;6.83;;;7.10;99.90;;;;;;5008749;28;20714;-45
2021/11/03 07:44:05;;;;;;;8.40;7.03;;;7.20;99.90;;;;;;5008725;28;20429;-45
2021/11/03 07:46:31;;;;;;;10.87;6.90;;;7.10;99.90;;;;;;5011918;28;20580;-47
2021/11/03 07:48:57;;;;;;;7.97;6.90;;;6.90;99.90;;;;;;5019745;28;20483;-44
2021/11/03 07:51:23;;;;;;;10.27;7.60;;;7.00;99.90;;;;;;5010721;28;20780;-45
2021/11/03 07:53:50;;;;;;;11.63;7.20;;;6.80;99.90;;;;;;4997563;28;20670;-45
2021/11/03 07:56:21;;;;;;;12.17;7.70;;;7.00;99.90;;;;;;5008772;28;20426;-45
2021/11/03 07:58:49;;;;;;;14.07;7.90;;;7.00;99.90;;;;;;5008978;28;20883;-45
2021/11/03 08:01:15;;;;;;;9.47;7.13;;;7.10;99.90;;;;;;5013833;28;20469;-52
2021/11/03 08:03:41;;;;;;;9.47;7.50;;;7.30;99.90;;;;;;5025325;28;20496;-44
2021/11/03 08:06:08;;;;;;;10.60;8.00;;;7.10;99.90;;;;;;5021882;28;20425;-44
2021/11/03 08:08:37;;;;;;;9.07;6.40;;;7.20;99.90;;;;;;5016139;28;20422;-46
2021/11/03 08:11:03;;;;;;;12.00;8.83;;;7.30;99.90;;;;;;5008882;28;20960;-45
2021/11/03 08:13:31;;;;;;;13.37;7.77;;;7.20;99.90;;;;;;5007204;28;20418;-45
2021/11/03 08:16:00;;;;;;;10.27;7.57;;;7.40;99.90;;;;;;5010143;28;20589;-45
2021/11/03 08:18:31;;;;;;;11.30;8.30;;;7.40;99.90;;;;;;5021483;28;20424;-46
2021/11/03 08:20:56;;;;;;;12.27;9.30;;;7.20;99.90;;;;;;5008607;28;20430;-44
2021/11/03 08:23:23;;;;;;;14.60;10.00;;;7.40;99.90;;;;;;5007872;28;20474;-44
2021/11/03 08:25:49;;;;;;;14.20;10.13;;;7.40;99.90;;;;;;5019271;28;20467;-45
2021/11/03 08:28:14;;;;;;;16.87;9.87;;;7.50;99.90;;;;;;5008518;28;20469;-47
2021/11/03 08:30:43;;;;;;;13.83;9.47;;;7.70;99.90;;;;;;5007559;28;20429;-45
2021/11/03 08:33:20;;;;;;;19.30;10.90;;;7.60;99.90;;;;;;5008011;28;20194;-46
2021/11/03 08:35:50;;;;;;;15.13;10.60;;;7.60;99.90;;;;;;5017430;28;20426;-44
2021/11/03 08:38:20;;;;;;;14.93;10.10;;;7.50;99.90;;;;;;5008389;28;20421;-48
2021/11/03 08:40:47;;;;;;;13.90;9.17;;;7.50;99.90;;;;;;5012123;28;20433;-44
2021/11/03 08:43:18;;;;;;;12.03;8.93;;;7.40;99.90;;;;;;5007485;28;20646;-44
2021/11/03 08:45:44;;;;;;;20.67;10.60;;;7.50;99.90;;;;;;5008050;28;20484;-44
2021/11/03 08:48:10;;;;;;;13.43;10.37;;;7.50;99.90;;;;;;5015485;28;20976;-44
2021/11/03 08:50:38;;;;;;;14.43;9.73;;;7.60;99.90;;;;;;5017376;28;20465;-44
2021/11/03 08:53:06;;;;;;;12.83;9.50;;;7.50;99.90;;;;;;5007376;28;20429;-47
2021/11/03 08:55:32;;;;;;;14.80;10.37;;;7.50;99.90;;;;;;5020208;28;20468;-46
2021/11/03 08:58:02;;;;;;;12.13;9.20;;;7.50;99.90;;;;;;5027660;28;20481;-44
2021/11/03 09:00:33;;;;;;;14.13;9.50;;;7.50;99.90;;;;;;5027483;28;20472;-49
2021/11/03 09:02:59;;;;;;;13.70;10.00;;;7.60;99.90;;;;;;5016977;28;20477;-44
2021/11/03 09:05:27;;;;;;;14.87;10.10;;;7.60;99.90;;;;;;5014436;28;20418;-49
2021/11/03 09:07:53;;;;;;;16.47;11.00;;;7.60;99.90;;;;;;5018177;28;20812;-44
2021/11/03 09:10:22;;;;;;;18.00;11.57;;;7.90;99.90;;;;;;5017888;28;20428;-44
2021/11/03 09:12:48;;;;;;;15.83;10.70;;;7.80;99.90;;;;;;5004483;28;20209;-44
2021/11/03 09:15:16;;;;;;;13.77;9.90;;;7.60;99.90;;;;;;5006010;28;20422;-45
2021/11/03 09:17:42;;;;;;;15.70;10.20;;;7.70;99.90;;;;;;5017871;28;20500;-44
2021/11/03 09:20:10;;;;;;;16.23;11.10;;;7.80;99.90;;;;;;5012124;28;20421;-45
2021/11/03 09:22:42;;;;;;;16.53;11.97;;;7.90;99.90;;;;;;5006968;28;20466;-44
2021/11/03 09:25:10;;;;;;;21.33;11.07;;;7.70;99.90;;;;;;5013255;28;20645;-44
2021/11/03 09:27:36;;;;;;;15.40;10.00;;;7.80;99.90;;;;;;5007056;28;20414;-44
2021/11/03 09:30:04;;;;;;;14.67;10.47;;;7.90;99.90;;;;;;5007216;28;20796;-44
2021/11/03 09:32:31;;;;;;;14.53;10.70;;;8.00;99.90;;;;;;5018258;28;20429;-47
2021/11/03 09:34:58;;;;;;;16.70;11.33;;;8.00;99.90;;;;;;5019870;28;20439;-44
2021/11/03 09:37:25;;;;;;;15.43;10.43;;;8.10;99.90;;;;;;5017927;28;20464;-45
2021/11/03 09:39:53;;;;;;;18.50;10.90;;;7.90;99.90;;;;;;5009725;28;20924;-44
2021/11/03 09:42:21;;;;;;;14.20;10.20;;;8.00;99.90;;;;;;5006235;28;21003;-44
2021/11/03 09:44:50;;;;;;;15.57;11.23;;;8.10;99.90;;;;;;5006312;28;21027;-44
2021/11/03 09:47:26;;;;;;;16.00;10.73;;;8.00;99.90;;;;;;5014686;28;20454;-47
2021/11/03 09:49:57;;;;;;;16.17;10.97;;;8.10;99.90;;;;;;5021815;28;20424;-45
2021/11/03 09:52:32;;;;;;;14.63;10.70;;;8.00;99.90;;;;;;5007862;28;20425;-47
2021/11/03 09:55:07;;;;;;;14.23;11.10;;;7.90;99.90;;;;;;5012958;28;21022;-44
2021/11/03 09:57:43;;;;;;;14.43;10.47;;;8.20;99.90;;;;;;5011881;28;20438;-44
2021/11/03 10:01:07;;;;;;;16.53;11.00;;;8.10;99.90;;;;;;5005596;28;20433;-46
2021/11/03 10:04:10;;;;;;;13.67;10.60;;;8.00;99.90;;;;;;5002986;28;20788;-44
2021/11/03 10:06:44;;;;;;;13.10;9.67;;;8.00;99.90;;;;;;5003745;28;21122;-46
2021/11/03 10:09:09;;;;;;;17.90;11.40;;;8.00;99.90;;;;;;5005788;28;20840;-47
2021/11/03 10:11:39;;;;;;;18.13;12.00;;;8.10;99.90;;;;;;5012924;28;20429;-47
2021/11/03 10:14:06;;;;;;;17.67;13.30;;;8.20;99.90;;;;;;5004989;28;20198;-46
2021/11/03 10:16:41;;;;;;;17.37;12.30;;;8.20;99.90;;;;;;5004716;28;20434;-44
2021/11/03 10:19:10;;;;;;;17.70;11.27;;;8.20;99.90;;;;;;5011340;28;20409;-47
2021/11/03 10:21:41;;;;;;;17.87;12.47;;;8.40;99.90;;;;;;5012603;28;20493;-45
2021/11/03 10:24:12;;;;;;;15.60;11.87;;;8.30;99.90;;;;;;5005528;28;20450;-44
2021/11/03 10:26:47;;;;;;;19.60;13.80;;;8.30;99.90;;;;;;5019193;28;20730;-44
2021/11/03 10:29:12;;;;;;;17.33;12.53;;;8.20;99.90;;;;;;5006574;28;20445;-45
2021/11/03 10:31:49;;;;;;;17.80;12.40;;;8.30;99.90;;;;;;5005903;28;21019;-48
2021/11/03 10:34:33;;;;;;;16.03;11.30;;;8.40;99.90;;;;;;5012597;28;20244;-45
2021/11/03 10:37:02;;;;;;;16.50;12.37;;;8.40;99.90;;;;;;5008496;28;20649;-45
2021/11/03 10:39:38;;;;;;;15.63;10.60;;;8.60;99.90;;;;;;5006033;28;20414;-45
2021/11/03 10:42:04;;;;;;;15.33;10.97;;;8.50;99.90;;;;;;5014607;28;20466;-49
2021/11/03 10:44:33;;;;;;;16.87;12.17;;;8.40;99.90;;;;;;5005528;28;20425;-44
2021/11/03 10:47:15;;;;;;;18.77;12.30;;;8.50;99.90;;;;;;5005226;28;20190;-47
2021/11/03 10:49:50;;;;;;;17.20;12.80;;;8.50;99.90;;;;;;5017980;28;20508;-44
2021/11/03 10:52:50;;;;;;;17.70;13.27;;;8.70;99.90;;;;;;5025785;28;20788;-44
2021/11/03 10:55:34;;;;;;;18.03;12.57;;;8.50;99.90;;;;;;5018963;28;20436;-46
2021/11/03 10:58:12;;;;;;;22.13;13.30;;;8.60;99.90;;;;;;5011300;28;20476;-45
2021/11/03 11:00:41;;;;;;;20.13;13.10;;;8.50;99.90;;;;;;5010199;28;20418;-45
2021/11/03 11:03:23;;;;;;;19.97;13.70;;;8.50;99.90;;;;;;5016464;28;20465;-44
2021/11/03 11:05:55;;;;;;;21.63;13.73;;;8.50;99.90;;;;;;5022541;28;20864;-48
2021/11/03 11:08:27;;;;;;;19.17;13.10;;;8.50;99.90;;;;;;5011170;28;20422;-44
2021/11/03 11:11:04;;;;;;;21.50;15.00;;;8.70;99.90;;;;;;5009927;28;20433;-45
2021/11/03 11:13:37;;;;;;;21.73;14.40;;;8.60;99.90;;;;;;5008072;28;20742;-44
2021/11/03 11:16:11;;;;;;;23.53;14.73;;;8.50;99.90;;;;;;5015058;28;20807;-44
2021/11/03 11:19:01;;;;;;;20.87;14.87;;;8.70;99.90;;;;;;5019519;28;20433;-46
2021/11/03 11:21:36;;;;;;;20.50;13.40;;;8.60;99.90;;;;;;5021535;28;20500;-44
2021/11/03 11:24:14;;;;;;;19.13;15.40;;;8.60;99.90;;;;;;5009052;28;20422;-44
2021/11/03 11:26:51;;;;;;;21.70;15.67;;;8.70;99.90;;;;;;5018949;28;20409;-48
2021/11/03 11:29:42;;;;;;;22.40;15.83;;;8.80;99.90;;;;;;5009570;28;20413;-45
2021/11/03 11:32:32;;;;;;;20.43;14.10;;;8.90;99.90;;;;;;5010016;28;20410;-46
2021/11/03 11:35:33;;;;;;;20.80;14.43;;;8.60;99.90;;;;;;5016294;28;21006;-45
2021/11/03 11:38:16;;;;;;;21.93;14.50;;;8.60;99.90;;;;;;5004504;28;20989;-44
2021/11/03 11:40:53;;;;;;;23.03;15.07;;;8.50;99.90;;;;;;5010799;28;20960;-44
2021/11/03 11:43:28;;;;;;;21.37;14.97;;;8.70;99.90;;;;;;5015680;28;20457;-45
2021/11/03 11:45:54;;;;;;;25.73;16.43;;;8.50;99.90;;;;;;5032262;28;20416;-45
2021/11/03 11:48:31;;;;;;;20.67;15.30;;;8.80;99.90;;;;;;5034751;28;20495;-47
2021/11/03 11:51:06;;;;;;;23.40;15.60;;;8.50;99.90;;;;;;5021174;28;20417;-45
2021/11/03 11:53:52;;;;;;;22.07;15.27;;;8.50;99.90;;;;;;5017743;28;20429;-45
2021/11/03 11:56:21;;;;;;;20.20;15.20;;;8.50;99.90;;;;;;5021943;28;20469;-46
2021/11/03 11:58:52;;;;;;;17.87;13.97;;;8.60;99.90;;;;;;5009012;28;20521;-46
2021/11/03 12:01:25;;;;;;;21.60;15.50;;;8.60;99.90;;;;;;5009010;28;20422;-45
2021/11/03 12:03:57;;;;;;;19.37;13.80;;;8.50;99.90;;;;;;5011865;28;20492;-45
2021/11/03 12:06:45;;;;;;;19.13;15.30;;;8.70;99.90;;;;;;5022933;28;20508;-46
2021/11/03 12:09:31;;;;;;;23.30;15.20;;;8.70;99.90;;;;;;5000253;28;20454;-44
2021/11/03 12:11:57;;;;;;;19.60;14.30;;;8.70;99.90;;;;;;5018761;28;20421;-48
2021/11/03 12:14:37;;;;;;;22.77;15.70;;;8.80;99.90;;;;;;5006511;28;20769;-45
2021/11/03 12:17:02;;;;;;;20.77;15.03;;;8.80;99.90;;;;;;5008604;28;20442;-44
2021/11/03 12:19:37;;;;;;;19.53;14.67;;;8.80;99.90;;;;;;5011226;28;20657;-46
2021/11/03 12:22:11;;;;;;;21.93;15.70;;;8.70;99.90;;;;;;5019606;28;20206;-48
2021/11/03 12:24:51;;;;;;;24.03;16.37;;;8.70;99.90;;;;;;5009360;28;20511;-46
2021/11/03 12:27:23;;;;;;;23.07;16.20;;;8.60;99.90;;;;;;5030069;28;20474;-46
2021/11/03 12:30:01;;;;;;;19.80;14.37;;;8.80;99.90;;;;;;5036641;28;20406;-45
2021/11/03 12:32:53;;;;;;;20.27;14.80;;;8.70;99.90;;;;;;5032388;28;20420;-45
2021/11/03 12:35:19;;;;;;;19.17;13.13;;;8.70;99.90;;;;;;5029298;28;20408;-45
2021/11/03 12:37:57;;;;;;;17.67;13.80;;;8.50;99.90;;;;;;5023401;28;20440;-46
2021/11/03 12:40:29;;;;;;;20.97;14.87;;;8.70;99.90;;;;;;5034416;28;20198;-44
2021/11/03 12:43:16;;;;;;;19.10;14.60;;;8.70;99.90;;;;;;5009779;28;20504;-50
2021/11/03 12:46:07;;;;;;;19.63;14.77;;;8.70;99.90;;;;;;5008222;28;20418;-47
2021/11/03 12:48:47;;;;;;;18.20;13.90;;;8.50;99.90;;;;;;5013807;28;20417;-46
2021/11/03 12:51:26;;;;;;;19.27;14.60;;;8.50;99.90;;;;;;5013162;28;20457;-46
2021/11/03 12:53:54;;;;;;;19.47;14.10;;;8.50;99.90;;;;;;5007146;28;20516;-46
2021/11/03 12:56:28;;;;;;;21.00;15.53;;;8.40;99.90;;;;;;5025934;28;20457;-46
2021/11/03 12:59:01;;;;;;;19.87;15.10;;;8.50;99.90;;;;;;5015659;28;20441;-45